createdAt,value
2022-10-28T00:00:10.778Z,162.40
2022-10-28T00:02:40.953Z,167.68
2022-10-28T00:05:08.415Z,173.73
2022-10-28T00:07:35.686Z,141.90
2022-10-28T00:10:02.937Z,166.02
2022-10-28T00:12:30.254Z,161.95
2022-10-28T00:14:57.507Z,153.80
2022-10-28T00:19:56.914Z,154.30
2022-10-28T00:22:24.583Z,160.90
2022-10-28T00:24:51.822Z,157.00
2022-10-28T00:27:19.046Z,143.93
2022-10-28T00:29:46.357Z,143.85
2022-10-28T00:32:13.615Z,129.45
2022-10-28T00:34:40.927Z,125.38
2022-10-28T00:37:08.211Z,116.07
2022-10-28T00:39:35.490Z,111.10
2022-10-28T00:42:03.818Z,118.88
2022-10-28T00:44:48.975Z,107.50
2022-10-28T00:47:16.198Z,106.05
2022-10-28T00:49:43.806Z,106.03
2022-10-28T00:52:18.349Z,102.43
2022-10-28T00:54:46.093Z,105.38
2022-10-28T00:57:15.674Z,90.13
2022-10-28T00:59:45.000Z,93.90
2022-10-28T01:02:12.849Z,97.68
2022-10-28T01:04:40.134Z,92.63
2022-10-28T01:07:07.430Z,89.45
2022-10-28T01:09:34.707Z,85.00
2022-10-28T01:12:11.100Z,81.07
2022-10-28T01:14:47.559Z,78.15
2022-10-28T01:17:40.657Z,68.95
2022-10-28T01:20:23.249Z,71.57
2022-10-28T01:22:56.731Z,70.00
2022-10-28T01:25:39.329Z,68.18
2022-10-28T01:28:09.872Z,59.60
2022-10-28T01:30:57.367Z,57.15
2022-10-28T01:33:36.977Z,57.45
2022-10-28T01:36:07.228Z,60.42
2022-10-28T01:38:45.065Z,55.77
2022-10-28T01:41:14.332Z,55.40
2022-10-28T01:43:53.847Z,54.25
2022-10-28T01:46:50.626Z,56.35
2022-10-28T01:49:21.079Z,59.63
2022-10-28T01:51:50.077Z,53.92
2022-10-28T01:54:19.944Z,50.92
2022-10-28T01:56:47.945Z,52.33
2022-10-28T01:59:20.066Z,47.47
2022-10-28T02:01:47.567Z,49.08
2022-10-28T02:04:15.192Z,44.15
2022-10-28T02:06:43.514Z,44.67
2022-10-28T02:09:29.611Z,41.50
2022-10-28T02:12:15.519Z,43.80
2022-10-28T02:14:45.608Z,44.53
2022-10-28T02:17:27.167Z,46.58
2022-10-28T02:20:05.632Z,42.47
2022-10-28T02:22:46.939Z,43.92
2022-10-28T02:27:58.490Z,39.80
2022-10-28T02:30:29.270Z,39.38
2022-10-28T02:33:01.302Z,43.63
2022-10-28T02:35:57.364Z,46.05
2022-10-28T02:38:31.773Z,44.90
2022-10-28T02:41:01.010Z,42.90
2022-10-28T02:43:28.917Z,39.72
2022-10-28T02:45:57.947Z,44.63
2022-10-28T02:48:44.032Z,41.53
2022-10-28T02:51:13.930Z,43.67
2022-10-28T02:53:46.454Z,45.13
2022-10-28T02:56:14.741Z,41.72
2022-10-28T02:58:42.496Z,38.35
2022-10-28T03:01:09.944Z,41.25
2022-10-28T03:03:37.449Z,39.83
2022-10-28T03:06:04.768Z,39.50
2022-10-28T03:08:32.107Z,37.22
2022-10-28T03:10:59.353Z,34.35
2022-10-28T03:13:26.652Z,34.03
2022-10-28T03:15:53.909Z,34.88
2022-10-28T03:18:21.181Z,38.95
2022-10-28T03:20:48.608Z,37.70
2022-10-28T03:23:15.878Z,33.35
2022-10-28T03:25:43.212Z,35.65
2022-10-28T03:28:10.493Z,35.42
2022-10-28T03:30:40.092Z,30.38
2022-10-28T03:33:07.331Z,35.50
2022-10-28T03:35:34.579Z,32.75
2022-10-28T03:38:01.901Z,33.05
2022-10-28T03:40:29.176Z,30.50
2022-10-28T03:42:56.657Z,32.10
2022-10-28T03:45:24.275Z,33.15
2022-10-28T03:47:51.807Z,30.35
2022-10-28T03:50:19.314Z,33.20
2022-10-28T03:52:46.649Z,36.70
2022-10-28T03:55:13.903Z,33.88
2022-10-28T03:57:41.134Z,31.77
2022-10-28T04:00:08.799Z,32.42
2022-10-28T04:02:36.033Z,28.02
2022-10-28T04:05:03.273Z,33.05
2022-10-28T04:07:30.563Z,29.25
2022-10-28T04:09:57.844Z,32.50
2022-10-28T04:12:25.114Z,32.28
2022-10-28T04:14:53.666Z,31.48
2022-10-28T04:17:20.953Z,31.90
2022-10-28T04:19:48.196Z,30.98
2022-10-28T04:22:15.457Z,36.58
2022-10-28T04:24:42.737Z,29.25
2022-10-28T04:27:10.072Z,30.58
2022-10-28T04:29:37.427Z,36.22
2022-10-28T04:32:04.810Z,29.92
2022-10-28T04:34:32.029Z,28.38
2022-10-28T04:36:59.286Z,32.88
2022-10-28T04:39:26.550Z,31.65
2022-10-28T04:41:53.987Z,33.20
2022-10-28T04:44:21.377Z,35.72
2022-10-28T04:46:48.655Z,35.05
2022-10-28T04:49:15.903Z,35.40
2022-10-28T04:51:43.222Z,32.00
2022-10-28T04:54:10.494Z,30.27
2022-10-28T04:56:37.751Z,29.20
2022-10-28T04:59:05.082Z,30.08
2022-10-28T05:01:32.434Z,31.50
2022-10-28T05:03:59.858Z,29.35
2022-10-28T05:06:27.207Z,35.75
2022-10-28T05:08:54.504Z,31.55
2022-10-28T05:11:21.726Z,34.67
2022-10-28T05:13:49.045Z,30.92
2022-10-28T05:16:16.295Z,31.10
2022-10-28T05:21:15.786Z,37.83
2022-10-28T05:23:43.042Z,35.42
2022-10-28T05:26:10.301Z,34.05
2022-10-28T05:28:37.538Z,37.95
2022-10-28T05:31:04.979Z,40.13
2022-10-28T05:33:33.697Z,35.25
2022-10-28T05:36:01.490Z,33.33
2022-10-28T05:38:29.046Z,41.28
2022-10-28T05:40:56.319Z,37.30
2022-10-28T05:43:23.600Z,35.67
2022-10-28T05:45:57.648Z,36.05
2022-10-28T05:48:25.377Z,39.20
2022-10-28T05:50:52.653Z,39.10
2022-10-28T05:53:19.934Z,36.85
2022-10-28T05:55:47.970Z,37.05
2022-10-28T05:58:15.572Z,36.90
2022-10-28T06:00:42.798Z,33.05
2022-10-28T06:03:12.210Z,31.70
2022-10-28T06:05:44.189Z,33.42
2022-10-28T06:08:12.589Z,35.70
2022-10-28T06:10:40.293Z,37.22
2022-10-28T06:13:08.226Z,37.67
2022-10-28T06:15:35.523Z,31.27
2022-10-28T06:18:03.188Z,36.25
2022-10-28T06:20:30.457Z,33.92
2022-10-28T06:22:57.717Z,32.20
2022-10-28T06:25:26.001Z,33.85
2022-10-28T06:27:54.272Z,34.33
2022-10-28T06:30:22.420Z,30.73
2022-10-28T06:32:49.698Z,29.70
2022-10-28T06:35:17.547Z,28.58
2022-10-28T06:37:44.848Z,41.40
2022-10-28T06:40:12.122Z,33.25
2022-10-28T06:42:39.354Z,31.92
2022-10-28T06:45:06.948Z,30.65
2022-10-28T06:47:40.608Z,34.38
2022-10-28T06:50:09.176Z,33.10
2022-10-28T06:52:36.594Z,27.95
2022-10-28T06:55:03.984Z,30.50
2022-10-28T06:57:31.557Z,26.58
2022-10-28T06:59:58.779Z,26.33
2022-10-28T07:02:26.316Z,29.15
2022-10-28T07:04:53.673Z,25.55
2022-10-28T07:07:20.918Z,26.98
2022-10-28T07:09:48.268Z,23.17
2022-10-28T07:12:15.607Z,25.85
2022-10-28T07:14:42.883Z,22.30
2022-10-28T07:17:10.112Z,24.77
2022-10-28T07:19:37.374Z,19.45
2022-10-28T07:22:04.675Z,20.50
2022-10-28T07:24:31.928Z,23.23
2022-10-28T07:26:59.187Z,24.80
2022-10-28T07:29:26.437Z,21.27
2022-10-28T07:31:56.886Z,19.70
2022-10-28T07:34:27.013Z,18.00
2022-10-28T07:36:55.375Z,22.83
2022-10-28T07:39:22.827Z,14.88
2022-10-28T07:41:50.121Z,18.52
2022-10-28T07:44:17.378Z,19.52
2022-10-28T07:46:44.639Z,20.25
2022-10-28T07:49:11.864Z,18.13
2022-10-28T07:51:39.121Z,18.10
2022-10-28T07:54:06.387Z,14.35
2022-10-28T07:56:33.677Z,16.73
2022-10-28T07:59:01.565Z,16.30
2022-10-28T08:01:28.894Z,15.63
2022-10-28T08:03:56.396Z,17.70
2022-10-28T08:06:23.703Z,19.85
2022-10-28T08:08:54.841Z,12.98
2022-10-28T08:13:53.161Z,13.27
2022-10-28T08:16:20.641Z,12.82
2022-10-28T08:18:48.101Z,14.70
2022-10-28T08:21:15.761Z,18.10
2022-10-28T08:23:46.950Z,21.65
2022-10-28T08:26:15.055Z,19.15
2022-10-28T08:28:42.663Z,20.15
2022-10-28T08:31:10.207Z,18.27
2022-10-28T08:33:38.550Z,22.05
2022-10-28T08:36:06.689Z,21.92
2022-10-28T08:38:34.181Z,20.90
2022-10-28T08:41:01.575Z,17.80
2022-10-28T08:43:52.781Z,17.88
2022-10-28T08:46:23.473Z,18.27
2022-10-28T08:48:50.744Z,17.88
2022-10-28T08:51:38.242Z,16.05
2022-10-28T08:54:07.340Z,17.75
2022-10-28T08:56:36.530Z,18.45
2022-10-28T08:59:06.978Z,15.38
2022-10-28T09:01:37.251Z,15.73
2022-10-28T09:04:07.008Z,15.95
2022-10-28T09:06:34.270Z,17.83
2022-10-28T09:09:01.499Z,17.48
2022-10-28T09:11:42.665Z,17.50
2022-10-28T09:14:12.885Z,19.75
2022-10-28T09:16:55.537Z,18.67
2022-10-28T09:19:46.302Z,21.35
2022-10-28T09:22:20.898Z,16.85
2022-10-28T09:25:05.711Z,23.73
2022-10-28T09:27:32.976Z,19.42
2022-10-28T09:30:00.213Z,17.15
2022-10-28T09:32:27.418Z,21.10
2022-10-28T09:34:54.639Z,19.35
2022-10-28T09:37:38.136Z,17.77
2022-10-28T09:40:25.880Z,18.70
2022-10-28T09:42:53.085Z,14.90
2022-10-28T09:45:26.344Z,17.13
2022-10-28T09:48:01.433Z,13.98
2022-10-28T09:50:30.401Z,15.43
2022-10-28T09:53:07.108Z,17.05
2022-10-28T09:55:35.104Z,16.05
2022-10-28T09:58:03.728Z,15.05
2022-10-28T10:00:31.274Z,15.02
2022-10-28T10:02:59.234Z,15.70
2022-10-28T10:05:27.170Z,16.65
2022-10-28T10:07:54.691Z,16.02
2022-10-28T10:10:32.048Z,16.55
2022-10-28T10:13:01.003Z,17.15
2022-10-28T10:15:30.568Z,16.63
2022-10-28T10:17:59.430Z,16.92
2022-10-28T10:20:27.100Z,15.23
2022-10-28T10:22:54.614Z,17.08
2022-10-28T10:25:22.074Z,13.60
2022-10-28T10:27:55.824Z,16.40
2022-10-28T10:30:24.969Z,17.13
2022-10-28T10:32:52.555Z,21.65
2022-10-28T10:35:21.965Z,20.70
2022-10-28T10:37:49.436Z,24.98
2022-10-28T10:40:33.627Z,19.83
2022-10-28T10:43:22.230Z,19.50
2022-10-28T10:46:07.935Z,23.73
2022-10-28T10:48:38.431Z,20.50
2022-10-28T10:51:07.462Z,16.80
2022-10-28T10:53:35.894Z,19.33
2022-10-28T10:56:04.378Z,15.82
2022-10-28T10:58:40.090Z,16.40
2022-10-28T11:01:09.606Z,26.48
2022-10-28T11:03:38.407Z,20.45
2022-10-28T11:06:24.322Z,23.20
2022-10-28T11:08:56.007Z,24.95
2022-10-28T11:11:23.602Z,26.35
2022-10-28T11:14:03.391Z,21.98
2022-10-28T11:16:30.811Z,24.42
2022-10-28T11:18:58.052Z,24.60
2022-10-28T11:21:43.883Z,24.50
2022-10-28T11:24:11.109Z,28.10
2022-10-28T11:26:45.494Z,23.70
2022-10-28T11:29:14.531Z,33.17
2022-10-28T11:31:54.590Z,26.02
2022-10-28T11:34:40.470Z,28.92
2022-10-28T11:37:17.427Z,28.20
2022-10-28T11:39:50.592Z,28.50
2022-10-28T11:42:17.879Z,31.33
2022-10-28T11:44:51.321Z,28.92
2022-10-28T11:47:18.547Z,27.35
2022-10-28T11:50:04.653Z,25.05
2022-10-28T11:52:50.371Z,24.30
2022-10-28T11:55:20.356Z,22.80
2022-10-28T11:57:54.021Z,24.80
2022-10-28T12:00:21.377Z,25.98
2022-10-28T12:02:57.757Z,21.30
2022-10-28T12:05:30.753Z,24.88
2022-10-28T12:08:05.829Z,26.35
2022-10-28T12:10:33.080Z,24.70
2022-10-28T12:13:06.148Z,14.02
2022-10-28T12:15:42.444Z,18.00
2022-10-28T12:18:09.711Z,19.25
2022-10-28T12:20:53.627Z,17.15
2022-10-28T12:23:22.147Z,18.38
2022-10-28T12:25:52.657Z,19.05
2022-10-28T12:28:26.170Z,22.85
2022-10-28T12:30:54.548Z,20.73
2022-10-28T12:33:25.991Z,20.70
2022-10-28T12:35:58.590Z,24.98
2022-10-28T12:38:46.123Z,23.90
2022-10-28T12:41:18.035Z,26.08
2022-10-28T12:43:48.261Z,30.45
2022-10-28T12:46:26.969Z,26.92
2022-10-28T12:48:58.791Z,23.73
2022-10-28T12:51:31.196Z,22.55
2022-10-28T12:54:01.485Z,28.08
2022-10-28T12:56:34.156Z,18.90
2022-10-28T12:59:07.161Z,24.25
2022-10-28T13:01:37.835Z,30.67
2022-10-28T13:04:05.356Z,24.30
2022-10-28T13:06:44.350Z,25.30
2022-10-28T13:09:17.428Z,24.83
2022-10-28T13:11:53.988Z,26.77
2022-10-28T13:14:27.497Z,25.00
2022-10-28T13:17:03.791Z,25.08
2022-10-28T13:19:49.802Z,25.40
2022-10-28T13:25:06.098Z,19.52
2022-10-28T13:27:33.482Z,22.48
2022-10-28T13:30:03.002Z,22.40
2022-10-28T13:32:35.602Z,25.55
2022-10-28T13:35:13.567Z,24.90
2022-10-28T13:37:41.457Z,24.90
2022-10-28T13:40:21.345Z,24.63
2022-10-28T13:42:49.919Z,22.50
2022-10-28T13:45:37.121Z,21.27
2022-10-28T13:48:22.949Z,24.33
2022-10-28T13:50:50.198Z,23.90
2022-10-28T13:53:29.745Z,20.23
2022-10-28T13:55:58.415Z,23.65
2022-10-28T13:58:27.203Z,23.58
2022-10-28T14:00:55.136Z,26.08
2022-10-28T14:03:23.805Z,25.80
2022-10-28T14:05:52.391Z,20.92
2022-10-28T14:08:26.198Z,25.92
2022-10-28T14:11:05.681Z,26.13
2022-10-28T14:13:38.072Z,24.60
2022-10-28T14:16:24.862Z,25.45
2022-10-28T14:18:54.560Z,29.92
2022-10-28T14:21:22.288Z,26.02
2022-10-28T14:23:49.517Z,28.75
2022-10-28T14:26:16.824Z,26.45
2022-10-28T14:28:44.036Z,26.23
2022-10-28T14:31:11.736Z,25.30
2022-10-28T14:33:44.955Z,26.90
2022-10-28T14:36:15.019Z,24.98
2022-10-28T14:38:52.548Z,27.20
2022-10-28T14:41:35.298Z,24.40
2022-10-28T14:44:05.595Z,22.40
2022-10-28T14:46:35.969Z,23.27
2022-10-28T14:49:04.606Z,25.83
2022-10-28T14:51:38.207Z,22.02
2022-10-28T14:54:11.700Z,25.67
2022-10-28T14:56:39.913Z,23.45
2022-10-28T14:59:27.733Z,22.05
2022-10-28T15:02:04.669Z,21.63
2022-10-28T15:04:32.279Z,19.13
2022-10-28T15:06:59.930Z,21.73
2022-10-28T15:09:31.373Z,22.20
2022-10-28T15:12:02.072Z,17.88
2022-10-28T15:14:32.418Z,23.67
2022-10-28T15:17:00.626Z,21.55
2022-10-28T15:19:29.393Z,18.50
2022-10-28T15:22:03.858Z,27.10
2022-10-28T15:24:31.111Z,19.67
2022-10-28T15:26:58.456Z,20.33
2022-10-28T15:29:26.254Z,18.95
2022-10-28T15:32:06.774Z,18.95
2022-10-28T15:34:34.052Z,21.10
2022-10-28T15:37:01.461Z,21.98
2022-10-28T15:39:28.927Z,23.52
2022-10-28T15:41:57.610Z,25.25
2022-10-28T15:44:24.878Z,24.08
2022-10-28T15:46:52.269Z,18.60
2022-10-28T15:49:38.820Z,23.75
2022-10-28T15:52:32.544Z,18.38
2022-10-28T15:55:01.005Z,25.67
2022-10-28T15:57:31.969Z,22.13
2022-10-28T16:00:17.997Z,29.75
2022-10-28T16:02:50.020Z,24.33
2022-10-28T16:05:42.829Z,27.50
2022-10-28T16:08:17.533Z,23.27
2022-10-28T16:10:46.692Z,25.17
2022-10-28T16:13:22.643Z,28.77
2022-10-28T16:15:55.833Z,26.25
2022-10-28T16:18:24.561Z,23.35
2022-10-28T16:20:52.342Z,27.48
2022-10-28T16:23:22.060Z,27.45
2022-10-28T16:25:49.462Z,26.55
2022-10-28T16:28:21.651Z,28.02
2022-10-28T16:30:51.114Z,29.15
2022-10-28T16:33:18.417Z,28.60
2022-10-28T16:35:45.705Z,24.92
2022-10-28T16:38:14.760Z,26.02
2022-10-28T16:40:57.346Z,33.13
2022-10-28T16:43:25.721Z,29.70
2022-10-28T16:45:53.863Z,24.40
2022-10-28T16:48:22.264Z,27.70
2022-10-28T16:50:50.897Z,23.48
2022-10-28T16:53:18.173Z,24.23
2022-10-28T16:55:45.442Z,24.50
2022-10-28T16:58:12.929Z,24.80
2022-10-28T17:00:40.738Z,20.23
2022-10-28T17:03:08.537Z,29.55
2022-10-28T17:05:35.917Z,26.65
2022-10-28T17:08:07.300Z,26.42
2022-10-28T17:10:37.238Z,24.90
2022-10-28T17:13:04.609Z,25.00
2022-10-28T17:15:31.866Z,26.52
2022-10-28T17:17:59.198Z,25.80
2022-10-28T17:20:26.481Z,23.63
2022-10-28T17:22:54.032Z,28.02
2022-10-28T17:25:21.492Z,29.15
2022-10-28T17:27:48.918Z,26.92
2022-10-28T17:30:17.649Z,28.65
2022-10-28T17:32:45.440Z,29.95
2022-10-28T17:35:12.796Z,28.48
2022-10-28T17:37:40.165Z,26.40
2022-10-28T17:40:08.446Z,29.17
2022-10-28T17:42:36.134Z,32.25
2022-10-28T17:45:03.430Z,31.17
2022-10-28T17:47:30.758Z,31.98
2022-10-28T17:49:59.717Z,28.35
2022-10-28T17:52:27.517Z,29.35
2022-10-28T17:54:54.780Z,32.63
2022-10-28T17:57:22.086Z,37.42
2022-10-28T17:59:49.512Z,35.15
2022-10-28T18:02:16.909Z,31.80
2022-10-28T18:04:44.308Z,31.98
2022-10-28T18:07:11.606Z,32.97
2022-10-28T18:09:40.642Z,34.90
2022-10-28T18:12:10.028Z,32.17
2022-10-28T18:14:37.288Z,33.20
2022-10-28T18:17:04.582Z,35.30
2022-10-28T18:19:31.852Z,33.55
2022-10-28T18:21:59.102Z,34.17
2022-10-28T18:24:26.471Z,34.28
2022-10-28T18:26:55.804Z,33.13
2022-10-28T18:29:23.207Z,29.25
2022-10-28T18:31:52.994Z,32.28
2022-10-28T18:34:21.367Z,36.55
2022-10-28T18:36:48.973Z,32.22
2022-10-28T18:39:16.461Z,34.42
2022-10-28T18:41:43.915Z,36.13
2022-10-28T18:44:12.747Z,39.65
2022-10-28T18:46:40.097Z,32.05
2022-10-28T18:49:07.367Z,34.15
2022-10-28T18:51:34.714Z,35.67
2022-10-28T18:54:02.052Z,35.60
2022-10-28T18:56:29.548Z,35.70
2022-10-28T18:58:57.826Z,36.75
2022-10-28T19:01:29.153Z,40.78
2022-10-28T19:03:57.898Z,41.88
2022-10-28T19:06:26.255Z,43.38
2022-10-28T19:08:54.756Z,37.22
2022-10-28T19:11:31.560Z,40.45
2022-10-28T19:14:03.247Z,46.70
2022-10-28T19:16:31.371Z,50.20
2022-10-28T19:18:59.339Z,49.85
2022-10-28T19:21:27.783Z,54.28
2022-10-28T19:23:55.517Z,45.45
2022-10-28T19:26:23.184Z,47.35
2022-10-28T19:28:51.574Z,43.28
2022-10-28T19:31:19.989Z,45.92
2022-10-28T19:33:47.538Z,46.63
2022-10-28T19:36:18.935Z,50.28
2022-10-28T19:38:47.087Z,46.97
2022-10-28T19:41:15.983Z,51.65
2022-10-28T19:43:43.488Z,43.53
2022-10-28T19:46:11.031Z,44.97
2022-10-28T19:48:39.134Z,47.58
2022-10-28T19:51:06.659Z,48.47
2022-10-28T19:53:33.958Z,49.25
2022-10-28T19:56:02.170Z,44.58
2022-10-28T19:58:30.162Z,51.63
2022-10-28T20:01:04.686Z,58.03
2022-10-28T20:03:34.540Z,63.05
2022-10-28T20:06:07.624Z,44.58
2022-10-28T20:08:35.978Z,50.78
2022-10-28T20:11:05.298Z,53.00
2022-10-28T20:13:32.612Z,46.75
2022-10-28T20:16:11.404Z,52.78
2022-10-28T20:18:39.164Z,50.97
2022-10-28T20:21:13.761Z,53.80
2022-10-28T20:23:41.763Z,47.38
2022-10-28T20:26:09.434Z,59.40
2022-10-28T20:28:36.952Z,55.08
2022-10-28T20:31:11.687Z,54.47
2022-10-28T20:33:42.635Z,54.50
2022-10-28T20:36:28.653Z,49.10
2022-10-28T20:39:03.030Z,51.00
2022-10-28T20:41:31.349Z,48.67
2022-10-28T20:43:58.892Z,46.38
2022-10-28T20:46:26.190Z,51.15
2022-10-28T20:48:56.892Z,48.47
2022-10-28T20:51:25.326Z,50.72
2022-10-28T20:53:52.821Z,45.70
2022-10-28T20:56:21.514Z,48.83
2022-10-28T20:58:48.815Z,46.22
2022-10-28T21:01:20.269Z,44.22
2022-10-28T21:03:48.215Z,52.88
2022-10-28T21:06:16.702Z,53.17
2022-10-28T21:08:44.191Z,47.15
2022-10-28T21:11:12.938Z,48.95
2022-10-28T21:13:40.504Z,45.58
2022-10-28T21:16:08.821Z,51.53
2022-10-28T21:18:39.381Z,52.15
2022-10-28T21:21:07.208Z,50.97
2022-10-28T21:23:34.506Z,48.88
2022-10-28T21:26:02.952Z,56.67
2022-10-28T21:28:31.145Z,50.88
2022-10-28T21:31:02.385Z,49.55
2022-10-28T21:36:00.395Z,41.65
2022-10-28T21:38:28.507Z,41.63
2022-10-28T21:41:12.833Z,41.30
2022-10-28T21:43:48.415Z,40.85
2022-10-28T21:46:16.047Z,40.05
2022-10-28T21:48:43.332Z,42.35
2022-10-28T21:51:14.819Z,45.08
2022-10-28T21:53:45.670Z,39.60
2022-10-28T21:56:18.864Z,30.50
2022-10-28T21:58:49.282Z,36.10
2022-10-28T22:01:20.468Z,32.85
2022-10-28T22:03:47.878Z,27.67
2022-10-28T22:06:15.437Z,22.05
2022-10-28T22:08:42.768Z,26.52
2022-10-28T22:11:14.184Z,24.60
2022-10-28T22:13:41.489Z,22.55
2022-10-28T22:16:11.267Z,24.55
2022-10-28T22:18:38.938Z,23.63
2022-10-28T22:21:06.250Z,29.05
2022-10-28T22:23:33.833Z,24.48
2022-10-28T22:26:01.937Z,28.00
2022-10-28T22:28:29.210Z,29.88
2022-10-28T22:31:00.036Z,27.45
2022-10-28T22:33:27.309Z,25.98
2022-10-28T22:36:02.360Z,26.45
2022-10-28T22:38:29.878Z,30.08
2022-10-28T22:41:07.576Z,28.90
2022-10-28T22:43:35.174Z,28.40
2022-10-28T22:46:02.543Z,26.88
2022-10-28T22:48:30.047Z,34.67
2022-10-28T22:50:57.314Z,28.33
2022-10-28T22:53:24.926Z,28.95
2022-10-28T22:55:55.400Z,29.65
2022-10-28T22:58:22.941Z,27.15
2022-10-28T23:00:50.555Z,30.35
2022-10-28T23:03:18.015Z,27.55
2022-10-28T23:05:45.612Z,26.10
2022-10-28T23:08:16.673Z,27.00
2022-10-28T23:10:43.958Z,24.70
2022-10-28T23:13:12.409Z,23.85
2022-10-28T23:15:39.655Z,25.15
2022-10-28T23:18:06.991Z,23.00
2022-10-28T23:20:36.574Z,26.10
2022-10-28T23:23:04.051Z,24.30
2022-10-28T23:25:32.542Z,21.33
2022-10-28T23:27:59.825Z,27.33
2022-10-28T23:30:27.038Z,21.65
2022-10-28T23:32:54.292Z,25.92
2022-10-28T23:35:21.582Z,24.08
2022-10-28T23:37:48.825Z,21.73
2022-10-28T23:40:16.389Z,23.02
2022-10-28T23:42:43.621Z,23.88
2022-10-28T23:45:10.973Z,25.85
2022-10-28T23:47:38.262Z,23.25
2022-10-28T23:50:05.715Z,24.38
2022-10-28T23:52:33.132Z,23.40
2022-10-28T23:55:00.403Z,25.55
2022-10-28T23:57:27.621Z,24.50
2022-10-28T23:59:54.825Z,23.48
